createdAt,value
2018-04-30T00:02:34.481Z,18.46
2018-04-30T00:17:35.710Z,18.73
2018-04-30T00:32:34.814Z,18.49
2018-04-30T00:47:34.881Z,17.26
2018-04-30T01:02:34.615Z,16.77
2018-04-30T01:17:37.533Z,17.00
2018-04-30T01:32:34.906Z,17.33
2018-04-30T01:47:35.059Z,17.85
2018-04-30T02:02:37.082Z,18.19
2018-04-30T02:17:34.308Z,18.38
2018-04-30T02:32:34.480Z,18.43
2018-04-30T02:47:33.759Z,18.55
2018-04-30T03:02:34.158Z,18.21
2018-04-30T03:17:35.393Z,17.06
2018-04-30T03:47:36.808Z,16.56
2018-04-30T04:02:47.019Z,16.78
2018-04-30T04:17:37.862Z,17.55
2018-04-30T04:32:37.822Z,18.29
2018-04-30T04:47:36.985Z,19.89
2018-04-30T05:02:36.951Z,21.35
2018-04-30T05:17:36.068Z,23.36
2018-04-30T05:32:34.420Z,24.61
2018-04-30T05:47:35.352Z,25.69
2018-04-30T06:02:34.398Z,26.89
2018-04-30T06:17:36.773Z,26.95
2018-04-30T06:32:34.677Z,26.38
2018-04-30T07:02:35.161Z,26.15
2018-04-30T07:17:36.484Z,24.75
2018-04-30T07:32:37.216Z,25.05
2018-04-30T07:47:36.907Z,26.92
2018-04-30T08:17:34.298Z,29.50
2018-04-30T08:32:35.166Z,28.87
2018-04-30T08:47:37.378Z,29.73
2018-04-30T15:02:34.937Z,26.95
2018-04-30T15:17:34.499Z,26.60
2018-04-30T15:32:34.149Z,26.35
2018-04-30T15:47:37.277Z,26.12
2018-04-30T16:02:34.329Z,25.94
2018-04-30T16:17:35.096Z,25.94
2018-04-30T16:32:34.559Z,25.61
2018-04-30T16:47:34.486Z,25.24
2018-04-30T17:02:32.789Z,24.80
2018-04-30T17:17:36.601Z,24.10
2018-04-30T17:32:35.059Z,23.10
2018-04-30T17:47:37.099Z,22.76
2018-04-30T18:02:36.430Z,22.46
2018-04-30T18:17:34.679Z,22.23
2018-04-30T18:32:34.373Z,22.09
2018-04-30T18:47:34.673Z,21.96
2018-04-30T19:02:34.226Z,21.86
2018-04-30T19:17:34.711Z,21.70
2018-04-30T19:32:36.754Z,21.55
2018-04-30T19:47:35.177Z,21.24
2018-04-30T20:02:34.557Z,20.91
2018-04-30T20:17:35.914Z,20.68
2018-04-30T20:32:35.071Z,20.53
2018-04-30T20:47:35.063Z,20.37
2018-04-30T21:02:35.010Z,20.75
2018-04-30T21:17:35.153Z,21.02
2018-04-30T21:32:34.189Z,21.10
2018-04-30T21:47:34.724Z,21.15
2018-04-30T22:02:33.883Z,21.15
2018-04-30T22:17:34.974Z,21.18
2018-04-30T22:32:34.714Z,21.14
2018-04-30T22:47:34.438Z,21.18
2018-04-30T23:02:34.189Z,21.16
2018-04-30T23:17:34.869Z,21.04
2018-04-30T23:32:34.289Z,20.80
2018-04-30T23:47:34.742Z,20.82
